Nearby METAR Reports

 

KELM - Elmira, New York, USA
Distance from station: W 13mi, 20km
Updated: Mon, 16-Jan-2017 9:53am EST
Clear
Clear
 Wind from calm
Wind: Calm
Temperature: 19°F , -7°C
Dew Point: 16°F , -9°C
Humidity: 86%
Barometer: 30.40 inHg , 1029.5 hPa
Clouds: Clear
Visibility: 10 miles , 16 km
2017/01/16 14:53 KELM 161453Z 00000KT 10SM CLR M07/M09 A3040 RMK AO2 SLP310 T10671094 52001
KITH - Ithaca/Tompkins, New York, USA
Distance from station: NNE 24mi, 39km
Updated: Mon, 16-Jan-2017 9:56am EST
Clear
Clear
 Wind from SSW
Wind: SSW 6 mph , 9 km/h
Temperature: 30°F , -1°C
Wind Chill: 24°F , -4°C
Dew Point: 25°F , -4°C
Humidity: 80%
Barometer: 30.37 inHg , 1028.4 hPa
Clouds: Clear
Visibility: 10 miles , 16 km
2017/01/16 14:56 KITH 161456Z 20005KT 10SM CLR M01/M04 A3037 RMK AO2 SLP302 T10111039
KBGM - Binghamton, New York, USA
Distance from station: E 35mi, 56km
Updated: Mon, 16-Jan-2017 9:53am EST
Clear
Clear
 Wind from SW
Wind: SW 7 mph , 11 km/h
Temperature: 23°F , -5°C
Wind Chill: 15°F , -9°C
Dew Point: 18°F , -8°C
Humidity: 80%
Barometer: 30.34 inHg , 1027.4 hPa
Clouds: Clear
Visibility: 10 miles , 16 km
2017/01/16 14:53 KBGM 161453Z 23006KT 10SM CLR M05/M08 A3034 RMK AO2 SLP298 T10501078 51003
 
KPEO - Penn Yan, New York, USA
Distance from station: NNW 40mi, 64km
Updated: Mon, 16-Jan-2017 9:53am EST
Clear
Clear
 Wind from SSW
Wind: SSW 7 mph , 11 km/h
Temperature: 28°F , -2°C
Wind Chill: 21°F , -6°C
Dew Point: 18°F , -8°C
Humidity: 64%
Barometer: 30.37 inHg , 1028.4 hPa
Clouds: Clear
Visibility: 10 miles , 16 km
2017/01/16 14:53 KPEO 161453Z AUTO 21006KT 10SM CLR M02/M08 A3037 RMK AO2 SLP298 T10221078 51003
KDSV - Dansville, New York, USA
Distance from station: WNW 61mi, 99km
Updated: Mon, 16-Jan-2017 9:54am EST
Clear
Clear
 Wind from SE
Wind: SE 6 mph , 9 km/h
Temperature: 25°F , -4°C
Wind Chill: 18°F , -8°C
Dew Point: 18°F , -8°C
Humidity: 74%
Barometer: 30.37 inHg , 1028.4 hPa
Clouds: Clear
Visibility: 10 miles , 16 km
2017/01/16 14:54 KDSV 161454Z AUTO 13005KT 10SM CLR M04/M08 A3037 RMK AO2 SLP303 T10391078 58001 $
KIPT - Williamsport, Pennsylvania, USA
Distance from station: SSW 64mi, 102km
Updated: Mon, 16-Jan-2017 9:54am EST
Clear
Clear
 Wind from calm
Wind: Calm
Temperature: 21°F , -6°C
Dew Point: 18°F , -8°C
Humidity: 86%
Barometer: 30.46 inHg , 1031.5 hPa
Clouds: Clear
Visibility: 10 miles , 16 km
2017/01/16 14:54 KIPT 161454Z 00000KT 10SM CLR M06/M08 A3046 RMK AO2 SLP322 T10561078 51004
 
KELZ - Wellsville, New York, USA
Distance from station: W 68mi, 110km
Updated: Mon, 16-Jan-2017 8:56am EST
Clear
Clear
 Wind from SW
Wind: SW 6 mph , 9 km/h
Temperature: 28°F , -2°C
Wind Chill: 21°F , -6°C
Dew Point: 18°F , -8°C
Humidity: 64%
Barometer: 30.32 inHg , 1026.8 hPa
Clouds: Clear
Visibility: 10 miles , 16 km
2017/01/16 13:56 KELZ 161356Z AUTO 22005KT 10SM CLR M02/M08 A3032 RMK AO2 SLP298 T10221083
KSYR - Syracuse, New York, USA
Distance from station: NNE 72mi, 117km
Updated: Mon, 16-Jan-2017 9:54am EST
Mostly cloudy
Mostly cloudy
 Wind from SSW
Wind: SSW 7 mph , 11 km/h
Temperature: 30°F , -1°C
Wind Chill: 23°F , -5°C
Dew Point: 21°F , -6°C
Humidity: 69%
Barometer: 30.38 inHg , 1028.8 hPa
Clouds: Mostly cloudy
Visibility: 10 miles , 16 km
Cloud details: Partly cloudy 18000 ft
Mostly cloudy 24000 ft
2017/01/16 14:54 KSYR 161454Z 21006KT 10SM SCT180 BKN240 M01/M06 A3038 RMK AO2 SLP289 T10061056 51001
KAVP - Avoca/Wilkes B., Pennsylvania, USA
Distance from station: SE 74mi, 120km
Updated: Mon, 16-Jan-2017 9:54am EST
Haze, Clear
Haze, Clear
 Wind from calm
Wind: Calm
Temperature: 21°F , -6°C
Dew Point: 16°F , -9°C
Humidity: 80%
Barometer: 30.42 inHg , 1030.1 hPa
Summary: Haze
Clouds: Clear
Visibility: 5 miles , 8 km
2017/01/16 14:54 KAVP 161454Z 00000KT 5SM HZ CLR M06/M09 A3042 RMK AO2 SLP313 T10561089 52008